Elizabeth, New Jersey
Current Conditions -  °F | °C
As of 9:51 AM on Wednesday 22 Oct 2014 (Local Time) from KEWR Reporting Station
Light Rain Light Rain  
Wind Chill: 54°   Ceiling: 1400
Heat Index: 54°   Visibility: 10mi
Dew Point: 52°   Wind: 17mph
Humidity: 93%   Direction: 20°NNE
Pressure: 29.93"   Gusts: NA
Location:  40.66°N, 74.21°W
Report Text: KEWR 221351Z 02015KT 10SM -RA FEW008 BKN014 OVC020 12/11 A2993 RMK AO2 SLP135 P0004 T01220111
Loading
Personal Weather Stations






























Interactive Weather Map
Tropical Storm Tracking
New forecast layout! Learn more

10-Day Weather Forecast

Advertisements
Track Severe Weather on mobile